Candiac, Canada
Current Conditions -  °F | °C
As of 11:16 PM on Sunday 21 Dec 2014 (Local Time) from CYHU Reporting Station
Haze Haze  
Wind Chill:   Ceiling: 1500
Heat Index: 18°   Visibility: 6mi
Dew Point: 12°   Wind: 9mph
Humidity: 79%   Direction: 40°NE
Pressure: 30.43"   Gusts: NA
Location:  45.38°N, 73.52°W
Report Text: CYHU 220416Z AUTO 04008KT 6SM HZ OVC015 M08/M11 A3043 RMK SLP305
Loading
Personal Weather Stations






























Interactive Weather Map New forecast layout! Learn more

10-Day Weather Forecast

Advertisements
Track Severe Weather on mobile